Time;durP1;ratioP1;P1;durP2;ratioP2;P2;SDS_P1;SDS_P2;PMS_P1;PMS_P2;Temp;Humidity;BMP_temperature;BMP_pressure;BME280_temperature;BME280_humidity;BME280_pressure;Samples;Min_cycle;Max_cycle;Signal;HPM_P1;HPM_P2
2022/09/03 00:08:24;;;;;;;1.20;0.20;;;22.40;46.40;;;;;;5130232;27;20415;-70
2022/09/03 00:10:58;;;;;;;0.30;0.15;;;22.40;46.40;;;;;;5129016;28;20051;-71
2022/09/03 00:13:32;;;;;;;0.43;0.30;;;22.40;46.40;;;;;;5129206;28;20055;-70
2022/09/03 00:15:59;;;;;;;0.50;0.10;;;22.30;46.40;;;;;;5128923;28;20036;-71
2022/09/03 00:18:30;;;;;;;0.50;0.13;;;22.30;46.40;;;;;;5128839;28;20039;-71
2022/09/03 00:21:07;;;;;;;0.20;0.10;;;22.30;46.40;;;;;;5128957;28;20043;-71
2022/09/03 00:23:36;;;;;;;0.52;0.10;;;22.30;46.40;;;;;;5128968;28;20058;-71
2022/09/03 00:26:26;;;;;;;0.40;0.20;;;22.30;46.40;;;;;;5129839;27;20043;-70
2022/09/03 00:29:05;;;;;;;0.40;0.20;;;22.30;46.40;;;;;;5128651;28;20039;-70
2022/09/03 00:31:37;;;;;;;1.10;0.20;;;22.30;46.40;;;;;;5129925;27;20100;-71
2022/09/03 00:34:16;;;;;;;0.50;0.15;;;22.30;46.40;;;;;;5128559;28;20081;-71
2022/09/03 00:36:44;;;;;;;0.95;0.20;;;22.30;46.40;;;;;;5129930;27;20043;-71
2022/09/03 00:39:15;;;;;;;0.38;0.10;;;22.30;46.40;;;;;;5128726;28;20035;-72
2022/09/03 00:42:22;;;;;;;0.60;0.20;;;22.30;46.40;;;;;;5128300;28;20054;-71
2022/09/03 00:47:53;;;;;;;2.13;0.13;;;22.30;46.40;;;;;;5152789;27;1166678;-71
2022/09/03 00:53:26;;;;;;;0.32;0.10;;;22.20;46.30;;;;;;5130321;27;20354;-71
2022/09/03 00:59:17;;;;;;;0.50;0.20;;;22.20;46.30;;;;;;5129161;27;20785;-71
2022/09/03 01:22:57;;;;;;;0.50;0.13;;;22.10;46.20;;;;;;5089222;28;20897;-70
2022/09/03 01:31:37;;;;;;;0.65;0.10;;;22.20;46.30;;;;;;5130114;27;20399;-70
2022/09/03 01:34:23;;;;;;;;;;;22.20;46.30;;;;;;5129277;28;20035;-71
2022/09/03 01:37:13;;;;;;;0.60;0.10;;;22.10;46.30;;;;;;5130183;27;20313;-71
2022/09/03 01:40:19;;;;;;;0.30;0.10;;;22.10;46.20;;;;;;5128778;28;20039;-70
2022/09/03 01:43:24;;;;;;;0.35;0.10;;;22.10;46.20;;;;;;5128624;28;20054;-70
2022/09/03 01:45:59;;;;;;;1.60;0.20;;;22.10;46.20;;;;;;5128846;28;20390;-71
2022/09/03 01:59:47;;;;;;;1.52;0.20;;;22.10;46.20;;;;;;5130370;27;20541;-71
2022/09/03 02:07:43;;;;;;;0.75;0.10;;;22.00;46.10;;;;;;5130213;27;20414;-71
2022/09/03 02:10:15;;;;;;;1.75;0.17;;;22.00;46.10;;;;;;5128993;28;20046;-70
2022/09/03 02:12:46;;;;;;;0.20;0.10;;;22.00;46.10;;;;;;5129096;28;20437;-71
2022/09/03 02:15:16;;;;;;;0.52;0.15;;;22.00;46.10;;;;;;5129170;28;20058;-70
2022/09/03 02:17:44;;;;;;;0.88;0.13;;;22.00;46.10;;;;;;5129177;28;20359;-70
2022/09/03 02:20:15;;;;;;;0.50;0.10;;;22.00;46.10;;;;;;5128938;28;20082;-70
2022/09/03 02:22:41;;;;;;;0.30;0.10;;;22.00;46.00;;;;;;5129921;27;20035;-71
2022/09/03 02:25:09;;;;;;;0.30;0.10;;;22.00;46.10;;;;;;5129892;27;20092;-70
2022/09/03 02:27:37;;;;;;;0.38;0.10;;;22.00;46.10;;;;;;5129999;27;20261;-71
2022/09/03 02:30:04;;;;;;;1.23;0.10;;;21.90;46.00;;;;;;5128726;28;20050;-70
2022/09/03 02:32:31;;;;;;;1.48;0.10;;;21.90;46.00;;;;;;5128612;28;20073;-70
2022/09/03 02:34:57;;;;;;;0.52;0.20;;;21.90;46.00;;;;;;5129730;27;20047;-70
2022/09/03 02:37:23;;;;;;;0.20;0.05;;;21.90;46.00;;;;;;5129638;28;20031;-70
2022/09/03 02:39:50;;;;;;;0.30;0.10;;;21.90;46.00;;;;;;5128473;28;20534;-70
2022/09/03 02:42:17;;;;;;;1.10;0.28;;;21.90;46.00;;;;;;5128402;28;20051;-70
2022/09/03 02:44:49;;;;;;;0.25;0.10;;;21.90;46.00;;;;;;5129749;27;20402;-70
2022/09/03 02:47:14;;;;;;;1.25;0.10;;;21.90;46.00;;;;;;5129502;27;20045;-71
2022/09/03 02:49:40;;;;;;;0.30;0.10;;;21.90;46.00;;;;;;5128486;28;20039;-70
2022/09/03 02:52:08;;;;;;;0.25;0.10;;;21.90;46.00;;;;;;5128119;28;20032;-70
2022/09/03 02:54:38;;;;;;;0.22;0.10;;;21.90;46.00;;;;;;5128358;28;20038;-70
2022/09/03 02:57:07;;;;;;;0.40;0.15;;;21.90;46.00;;;;;;5128414;28;20147;-70
2022/09/03 02:59:34;;;;;;;0.30;0.20;;;21.90;46.00;;;;;;5128274;28;20086;-70
2022/09/03 03:02:00;;;;;;;0.50;0.10;;;21.90;46.00;;;;;;5128394;27;20380;-70
2022/09/03 03:04:26;;;;;;;0.50;0.10;;;21.90;46.00;;;;;;5128145;28;20076;-70
2022/09/03 03:06:51;;;;;;;0.35;0.10;;;21.90;46.00;;;;;;5127845;28;20403;-70
2022/09/03 03:09:18;;;;;;;0.68;0.10;;;21.90;46.00;;;;;;5129231;28;20042;-70
2022/09/03 03:11:44;;;;;;;0.85;0.10;;;21.80;45.90;;;;;;5127878;28;20047;-70
2022/09/03 03:14:09;;;;;;;0.25;0.10;;;21.80;45.90;;;;;;5127778;28;20562;-70
2022/09/03 03:16:35;;;;;;;0.22;0.10;;;21.80;46.00;;;;;;5127789;28;20039;-70
2022/09/03 03:19:01;;;;;;;0.30;0.10;;;21.80;45.90;;;;;;5114869;28;20060;-70
2022/09/03 03:21:27;;;;;;;0.68;0.17;;;21.80;45.90;;;;;;5113841;28;20119;-70
2022/09/03 03:23:53;;;;;;;1.90;0.15;;;21.80;45.90;;;;;;5113890;28;20035;-70
2022/09/03 03:26:20;;;;;;;0.55;0.30;;;21.80;45.90;;;;;;5113757;28;20044;-70
2022/09/03 03:28:48;;;;;;;0.70;0.10;;;21.80;46.00;;;;;;5114100;28;20040;-71
2022/09/03 03:31:17;;;;;;;1.02;0.20;;;21.80;45.90;;;;;;5113635;28;20043;-70
2022/09/03 03:33:43;;;;;;;1.30;0.10;;;21.80;45.90;;;;;;5115000;28;20494;-70
2022/09/03 03:36:13;;;;;;;0.38;0.10;;;21.80;45.90;;;;;;5113571;28;20044;-70
2022/09/03 03:38:40;;;;;;;1.60;0.10;;;21.80;45.90;;;;;;5113800;28;20052;-70
2022/09/03 03:41:10;;;;;;;0.45;0.13;;;21.80;46.00;;;;;;5113527;28;20039;-70
2022/09/03 03:43:35;;;;;;;1.23;0.10;;;21.80;46.00;;;;;;5113718;28;20047;-71
2022/09/03 03:46:01;;;;;;;1.75;0.10;;;21.80;45.90;;;;;;5115038;28;20042;-70
2022/09/03 03:48:27;;;;;;;0.30;0.10;;;21.80;45.90;;;;;;5114647;28;20045;-70
2022/09/03 03:50:53;;;;;;;0.20;0.10;;;21.80;46.00;;;;;;5114514;28;20042;-70
2022/09/03 03:53:19;;;;;;;0.30;0.10;;;21.70;45.90;;;;;;5113346;28;20115;-70
2022/09/03 03:56:02;;;;;;;0.30;0.10;;;21.80;46.00;;;;;;5114452;28;20514;-70
2022/09/03 03:58:31;;;;;;;0.20;0.10;;;21.80;46.00;;;;;;5113536;28;20039;-70
2022/09/03 04:01:04;;;;;;;0.60;0.10;;;21.70;45.90;;;;;;5114376;28;20028;-70
2022/09/03 04:03:30;;;;;;;0.65;0.10;;;21.70;45.90;;;;;;5113088;28;20047;-71
2022/09/03 04:05:58;;;;;;;0.15;0.00;;;21.70;45.90;;;;;;5114089;28;20116;-70
2022/09/03 04:08:25;;;;;;;0.40;0.10;;;21.70;46.00;;;;;;5112917;28;20111;-70
2022/09/03 04:10:51;;;;;;;0.20;0.10;;;21.70;46.00;;;;;;5114349;28;20110;-70
2022/09/03 04:13:17;;;;;;;0.30;0.10;;;21.70;46.00;;;;;;5112940;28;20127;-70
2022/09/03 04:15:43;;;;;;;0.40;0.10;;;21.70;46.00;;;;;;5114214;28;20028;-70
2022/09/03 04:18:08;;;;;;;0.20;0.10;;;21.70;46.00;;;;;;5113977;28;20486;-70
2022/09/03 04:20:35;;;;;;;0.45;0.10;;;21.70;46.00;;;;;;5112816;28;20502;-70
2022/09/03 04:23:01;;;;;;;0.40;0.10;;;21.70;46.00;;;;;;5112642;28;20043;-70
2022/09/03 04:25:27;;;;;;;0.35;0.10;;;21.70;46.10;;;;;;5112883;28;20360;-70
2022/09/03 04:27:53;;;;;;;0.85;0.20;;;21.70;46.10;;;;;;5113912;28;20047;-70
2022/09/03 04:30:19;;;;;;;0.35;0.10;;;21.70;46.10;;;;;;5112873;28;20063;-70
2022/09/03 04:32:55;;;;;;;0.30;0.10;;;21.70;46.10;;;;;;5112502;28;20498;-70
2022/09/03 04:35:22;;;;;;;0.65;0.25;;;21.70;46.10;;;;;;5112788;28;20039;-70
2022/09/03 04:37:48;;;;;;;0.28;0.10;;;21.60;46.00;;;;;;5113772;28;20067;-71
2022/09/03 04:40:15;;;;;;;1.83;0.10;;;21.70;46.10;;;;;;5112432;28;20097;-70
2022/09/03 04:42:40;;;;;;;0.40;0.10;;;21.60;46.10;;;;;;5112646;28;20039;-70
2022/09/03 04:45:07;;;;;;;0.75;0.20;;;21.60;46.10;;;;;;5112406;28;20402;-70
2022/09/03 04:47:35;;;;;;;0.13;0.00;;;21.60;46.10;;;;;;5112119;28;20285;-70
2022/09/03 04:50:00;;;;;;;0.95;0.10;;;21.60;46.10;;;;;;5112320;28;20307;-70
2022/09/03 04:52:30;;;;;;;0.30;0.10;;;21.60;46.10;;;;;;5112228;28;20375;-70
2022/09/03 04:54:56;;;;;;;0.52;0.10;;;21.60;46.10;;;;;;5112084;28;20032;-70
2022/09/03 04:57:22;;;;;;;0.40;0.20;;;21.60;46.10;;;;;;5113481;28;20492;-70
2022/09/03 04:59:48;;;;;;;0.52;0.10;;;21.60;46.10;;;;;;5113347;28;20075;-70
2022/09/03 05:02:14;;;;;;;0.30;0.10;;;21.60;46.10;;;;;;5112181;28;20086;-70
2022/09/03 05:04:40;;;;;;;0.25;0.10;;;21.60;46.10;;;;;;5112110;28;20127;-71
2022/09/03 05:07:06;;;;;;;2.28;0.20;;;21.60;46.20;;;;;;5111677;28;20040;-71
2022/09/03 05:09:32;;;;;;;0.38;0.10;;;21.50;46.10;;;;;;5111844;28;20035;-70
2022/09/03 05:11:57;;;;;;;0.70;0.10;;;21.60;46.20;;;;;;5111882;28;20081;-70
2022/09/03 05:14:23;;;;;;;0.30;0.10;;;21.60;46.20;;;;;;5111668;28;20088;-70
2022/09/03 05:16:49;;;;;;;0.28;0.10;;;21.60;46.20;;;;;;5111759;28;20048;-70
2022/09/03 05:19:14;;;;;;;0.30;0.10;;;21.50;46.20;;;;;;5111881;28;20124;-70
2022/09/03 05:21:41;;;;;;;0.40;0.10;;;21.50;46.20;;;;;;5112929;28;20429;-70
2022/09/03 05:24:07;;;;;;;0.20;0.10;;;21.50;46.20;;;;;;5111561;28;20050;-70
2022/09/03 05:26:38;;;;;;;0.20;0.00;;;21.60;46.30;;;;;;5111796;28;20031;-70
2022/09/03 05:29:07;;;;;;;0.30;0.10;;;21.50;46.30;;;;;;5111819;28;20046;-70
2022/09/03 05:31:35;;;;;;;0.20;0.10;;;21.50;46.30;;;;;;5113161;28;20081;-70
2022/09/03 05:34:02;;;;;;;0.38;0.10;;;21.50;46.20;;;;;;5112697;28;20040;-70
2022/09/03 05:36:31;;;;;;;0.30;0.10;;;21.50;46.20;;;;;;5111695;28;20446;-70
2022/09/03 05:38:58;;;;;;;1.27;0.17;;;21.50;46.30;;;;;;5111699;28;20043;-70
2022/09/03 05:41:24;;;;;;;0.20;0.05;;;21.50;46.30;;;;;;5112322;28;20483;-70
2022/09/03 05:43:55;;;;;;;0.20;0.10;;;21.50;46.30;;;;;;5112657;28;20040;-70
2022/09/03 05:46:28;;;;;;;0.50;0.10;;;21.50;46.30;;;;;;5112361;28;20395;-70
2022/09/03 05:48:54;;;;;;;0.20;0.20;;;21.50;46.30;;;;;;5111524;28;20032;-70
2022/09/03 05:51:20;;;;;;;0.13;0.08;;;21.50;46.30;;;;;;5111168;28;20380;-70
2022/09/03 05:53:47;;;;;;;0.68;0.10;;;21.50;46.30;;;;;;5111363;28;20036;-70
2022/09/03 05:56:16;;;;;;;0.75;0.10;;;21.50;46.30;;;;;;5112489;28;20045;-70
2022/09/03 05:58:45;;;;;;;0.45;0.10;;;21.50;46.30;;;;;;5111064;28;20122;-70
2022/09/03 06:03:57;;;;;;;0.20;0.10;;;21.40;46.40;;;;;;5130741;27;20386;-70
2022/09/03 06:06:24;;;;;;;1.50;0.10;;;21.40;46.40;;;;;;5128985;27;20050;-70
2022/09/03 06:08:51;;;;;;;0.75;0.10;;;21.40;46.30;;;;;;5130334;27;20395;-70
2022/09/03 06:11:17;;;;;;;0.20;0.10;;;21.40;46.30;;;;;;5128841;28;20047;-70
2022/09/03 06:13:42;;;;;;;0.43;0.10;;;21.40;46.30;;;;;;5129095;28;20112;-70
2022/09/03 06:16:08;;;;;;;0.20;0.00;;;21.40;46.40;;;;;;5146319;27;20433;-70
2022/09/03 06:18:34;;;;;;;0.85;0.10;;;21.40;46.40;;;;;;5128842;28;20069;-70
2022/09/03 06:21:02;;;;;;;0.45;0.10;;;21.40;46.40;;;;;;5128655;28;20035;-70
2022/09/03 06:23:29;;;;;;;2.47;0.10;;;21.40;46.40;;;;;;5128589;28;20069;-70
2022/09/03 06:26:01;;;;;;;0.80;0.20;;;21.40;46.40;;;;;;5128588;27;20043;-70
2022/09/03 06:28:27;;;;;;;0.52;0.10;;;21.40;46.40;;;;;;5128880;27;20138;-70
2022/09/03 06:30:56;;;;;;;0.32;0.10;;;21.40;46.40;;;;;;5128707;28;20542;-70
2022/09/03 06:33:23;;;;;;;1.02;0.03;;;21.40;46.40;;;;;;5128948;28;20043;-70
2022/09/03 06:35:56;;;;;;;0.43;0.10;;;21.40;46.50;;;;;;5129789;27;20043;-70
2022/09/03 06:38:21;;;;;;;0.52;0.52;;;21.40;46.50;;;;;;5130134;27;20031;-70
2022/09/03 06:40:53;;;;;;;0.47;0.10;;;21.30;46.40;;;;;;5128584;28;20363;-70
2022/09/03 06:43:19;;;;;;;0.68;0.10;;;21.40;46.50;;;;;;5129516;27;20112;-70
2022/09/03 06:45:53;;;;;;;0.20;0.10;;;21.40;46.50;;;;;;5129610;27;20126;-70
2022/09/03 06:48:19;;;;;;;0.30;0.10;;;21.40;46.50;;;;;;5129744;27;20078;-70
2022/09/03 06:50:53;;;;;;;0.40;0.13;;;21.30;46.50;;;;;;5128255;28;20518;-70
2022/09/03 06:53:21;;;;;;;0.20;0.10;;;21.40;46.60;;;;;;5129290;27;20075;-70
2022/09/03 06:55:57;;;;;;;0.40;0.10;;;21.30;46.50;;;;;;5129585;27;20043;-70
2022/09/03 06:58:24;;;;;;;0.47;0.10;;;21.40;46.60;;;;;;5128162;28;20043;-70
2022/09/03 07:00:51;;;;;;;0.40;0.15;;;21.30;46.50;;;;;;5128272;28;20122;-70
2022/09/03 07:03:18;;;;;;;0.63;0.30;;;21.40;46.60;;;;;;5128798;27;20548;-70
2022/09/03 07:05:44;;;;;;;0.43;0.10;;;21.30;46.60;;;;;;5128163;28;20084;-70
2022/09/03 07:08:10;;;;;;;0.20;0.10;;;21.30;46.60;;;;;;5127697;28;20039;-70
2022/09/03 07:10:36;;;;;;;0.52;0.10;;;21.30;46.70;;;;;;5129023;27;20096;-70
2022/09/03 07:13:05;;;;;;;0.20;0.10;;;21.30;46.70;;;;;;5128011;27;20036;-70
2022/09/03 07:15:32;;;;;;;0.45;0.10;;;21.30;46.70;;;;;;5113955;28;20047;-70
2022/09/03 07:17:57;;;;;;;0.90;0.10;;;21.30;46.70;;;;;;5114083;28;20051;-70
2022/09/03 07:20:23;;;;;;;0.40;0.10;;;21.30;46.70;;;;;;5114131;28;20085;-70
2022/09/03 07:22:49;;;;;;;0.77;0.20;;;21.30;46.80;;;;;;5114928;28;20499;-70
2022/09/03 07:25:14;;;;;;;0.38;0.30;;;21.30;46.80;;;;;;5115077;28;20118;-70
2022/09/03 07:27:40;;;;;;;0.60;0.10;;;21.30;46.80;;;;;;5115292;28;20088;-70
2022/09/03 07:30:08;;;;;;;0.73;0.10;;;21.30;46.80;;;;;;5113742;28;20043;-70
2022/09/03 07:32:39;;;;;;;0.68;0.10;;;21.30;46.80;;;;;;5115125;28;20503;-70
2022/09/03 07:35:05;;;;;;;0.40;0.20;;;21.30;46.90;;;;;;5114829;28;20534;-70
2022/09/03 07:37:32;;;;;;;0.50;0.20;;;21.30;46.90;;;;;;5113402;28;20518;-70
2022/09/03 07:39:58;;;;;;;0.45;0.20;;;21.30;46.90;;;;;;5113760;28;20044;-70
2022/09/03 07:42:26;;;;;;;0.95;0.00;;;21.30;47.00;;;;;;5112192;28;20050;-70
2022/09/03 07:44:51;;;;;;;1.15;0.20;;;21.30;46.90;;;;;;5111929;28;20043;-67
2022/09/03 07:47:18;;;;;;;0.30;0.10;;;21.20;46.90;;;;;;5112605;28;20032;-65
2022/09/03 07:49:44;;;;;;;3.00;0.73;;;21.30;47.00;;;;;;5112603;28;20037;-67
2022/09/03 07:52:10;;;;;;;0.30;0.10;;;21.30;47.00;;;;;;5113867;28;20458;-66
2022/09/03 07:54:35;;;;;;;0.57;0.20;;;21.40;47.00;;;;;;5113662;28;20038;-66
2022/09/03 07:57:01;;;;;;;3.08;0.15;;;21.40;47.00;;;;;;5112760;28;20035;-66
2022/09/03 07:59:27;;;;;;;6.05;0.28;;;21.40;46.90;;;;;;5111703;28;20422;-65
2022/09/03 08:01:53;;;;;;;0.60;0.10;;;21.50;46.90;;;;;;5115531;27;20052;-65
2022/09/03 08:04:20;;;;;;;2.92;0.20;;;21.50;46.90;;;;;;5097244;28;20036;-67
2022/09/03 08:06:47;;;;;;;1.52;0.20;;;21.50;46.90;;;;;;5113214;28;20543;-66
2022/09/03 08:09:12;;;;;;;0.30;0.10;;;21.50;46.90;;;;;;5111577;28;20031;-67
2022/09/03 08:11:42;;;;;;;1.38;0.10;;;21.60;47.00;;;;;;5113874;28;20035;-67
2022/09/03 08:14:10;;;;;;;8.00;0.38;;;21.60;47.10;;;;;;5112718;28;20032;-67
2022/09/03 08:16:38;;;;;;;2.25;0.20;;;21.60;47.00;;;;;;5111859;28;20065;-68
2022/09/03 08:19:04;;;;;;;1.20;0.20;;;21.70;47.10;;;;;;5111048;28;20032;-68
2022/09/03 08:21:30;;;;;;;0.65;0.10;;;21.70;47.10;;;;;;5112499;28;20051;-66
2022/09/03 08:24:01;;;;;;;2.05;0.13;;;21.70;47.10;;;;;;5111927;28;20052;-66
2022/09/03 08:26:29;;;;;;;2.67;0.20;;;21.70;47.10;;;;;;5111087;28;20512;-67
2022/09/03 08:28:55;;;;;;;1.45;0.10;;;21.80;47.00;;;;;;5113291;27;20047;-67
2022/09/03 08:31:22;;;;;;;1.55;0.17;;;21.80;47.10;;;;;;5110658;28;20076;-67
2022/09/03 08:33:50;;;;;;;1.90;0.13;;;21.90;47.20;;;;;;5111980;28;20043;-69
2022/09/03 08:36:34;;;;;;;1.88;0.20;;;21.90;47.20;;;;;;5111232;28;20032;-69
2022/09/03 08:39:03;;;;;;;0.40;0.10;;;21.90;47.00;;;;;;5113384;28;20054;-69
2022/09/03 08:44:47;;;;;;;2.03;0.20;;;21.90;46.90;;;;;;5130316;27;20457;-66
2022/09/03 08:55:35;;;;;;;0.52;0.20;;;21.90;47.00;;;;;;5089243;28;20360;-67
2022/09/03 08:58:09;;;;;;;4.88;0.30;;;21.90;47.10;;;;;;5087606;28;20399;-68
2022/09/03 09:12:46;;;;;;;7.53;0.20;;;21.90;47.00;;;;;;5109647;27;20109;-70
2022/09/03 09:18:22;;;;;;;0.47;0.10;;;22.00;47.10;;;;;;5130238;27;20357;-70
2022/09/03 09:20:53;;;;;;;3.50;0.20;;;21.80;47.20;;;;;;5128806;28;20127;-70
2022/09/03 09:26:07;;;;;;;1.13;0.17;;;21.80;48.10;;;;;;5153090;27;1157485;-70
2022/09/03 09:28:36;;;;;;;2.88;0.10;;;21.80;47.40;;;;;;5153333;27;20081;-70
2022/09/03 09:31:08;;;;;;;2.28;0.10;;;21.70;47.40;;;;;;5152885;27;20038;-70
2022/09/03 09:33:34;;;;;;;1.60;0.17;;;21.70;47.50;;;;;;5153187;27;20042;-70
2022/09/03 09:36:05;;;;;;;2.90;0.15;;;21.70;47.50;;;;;;5152997;27;20548;-70
2022/09/03 09:38:32;;;;;;;;;;;21.70;47.50;;;;;;5153292;27;20038;-70
2022/09/03 09:41:18;;;;;;;1.65;0.20;;;21.80;47.50;;;;;;5152863;27;19922;-70
2022/09/03 09:43:46;;;;;;;4.03;0.20;;;21.70;47.60;;;;;;5152631;27;20486;-70
2022/09/03 09:46:18;;;;;;;1.27;0.10;;;21.70;47.60;;;;;;5171677;27;20045;-70
2022/09/03 09:49:00;;;;;;;1.48;0.10;;;21.70;47.70;;;;;;5152628;27;20081;-70
2022/09/03 09:51:30;;;;;;;0.82;0.20;;;21.70;47.70;;;;;;5152664;27;20057;-70
2022/09/03 09:54:17;;;;;;;1.30;0.10;;;21.80;47.70;;;;;;5152845;27;20046;-70
2022/09/03 09:56:43;;;;;;;1.48;0.40;;;21.80;47.70;;;;;;5152625;27;20042;-70
2022/09/03 09:59:11;;;;;;;1.00;0.20;;;21.80;47.70;;;;;;5152373;27;20037;-70
2022/09/03 10:01:39;;;;;;;1.42;0.10;;;21.80;47.70;;;;;;5152759;27;20038;-70
2022/09/03 10:06:55;;;;;;;0.35;0.10;;;21.80;47.70;;;;;;5152750;27;1167554;-70
2022/09/03 10:14:54;;;;;;;0.68;0.10;;;21.80;47.70;;;;;;5130783;27;20349;-70
2022/09/03 10:23:19;;;;;;;0.70;0.10;;;21.90;47.70;;;;;;5130315;27;20361;-70
2022/09/03 10:26:09;;;;;;;0.20;0.10;;;21.90;47.70;;;;;;5129220;28;20086;-70
2022/09/03 10:28:40;;;;;;;1.20;0.20;;;21.90;47.70;;;;;;5128831;28;20096;-71
2022/09/03 10:34:12;;;;;;;0.93;0.10;;;21.90;47.80;;;;;;5150771;27;20345;-70
2022/09/03 10:42:51;;;;;;;0.60;0.10;;;21.90;47.80;;;;;;5152944;27;1162737;-71
2022/09/03 10:45:41;;;;;;;0.45;0.10;;;21.90;47.80;;;;;;5152779;27;20374;-71
2022/09/03 10:51:03;;;;;;;0.23;0.10;;;21.90;47.80;;;;;;5152883;27;1164492;-71
2022/09/03 10:53:58;;;;;;;1.67;0.20;;;21.90;47.80;;;;;;5153014;27;20279;-70
2022/09/03 10:56:41;;;;;;;0.40;0.10;;;21.90;47.80;;;;;;5152600;27;20521;-70
2022/09/03 11:07:16;;;;;;;0.35;0.10;;;21.90;47.80;;;;;;5130392;27;20345;-70
2022/09/03 11:09:49;;;;;;;0.32;0.10;;;21.90;47.90;;;;;;5128897;28;20466;-70
2022/09/03 11:12:24;;;;;;;0.98;0.10;;;21.90;47.90;;;;;;5129038;28;20554;-70
2022/09/03 11:14:55;;;;;;;3.03;0.30;;;21.90;47.90;;;;;;5128915;28;20130;-71
2022/09/03 11:22:58;;;;;;;1.20;0.30;;;21.90;48.70;;;;;;5130502;27;20342;-70
2022/09/03 11:25:31;;;;;;;0.30;0.17;;;21.90;48.00;;;;;;5129222;28;20149;-70
2022/09/03 11:31:23;;;;;;;0.50;0.10;;;21.90;48.00;;;;;;5130257;27;20407;-70
2022/09/03 11:33:58;;;;;;;1.23;0.20;;;21.90;48.00;;;;;;5129163;28;20043;-70
2022/09/03 11:36:35;;;;;;;0.80;0.10;;;21.90;48.00;;;;;;5128881;28;20046;-70
2022/09/03 11:39:12;;;;;;;0.45;0.10;;;21.90;48.00;;;;;;5128886;28;20051;-70
2022/09/03 11:41:38;;;;;;;0.80;0.15;;;21.90;48.10;;;;;;5128801;28;20058;-70
2022/09/03 11:44:19;;;;;;;0.90;0.15;;;21.90;48.00;;;;;;5128753;28;20040;-71
2022/09/03 11:46:55;;;;;;;0.55;0.10;;;21.90;48.00;;;;;;5128930;28;20081;-71
2022/09/03 11:49:45;;;;;;;0.90;0.20;;;21.90;48.00;;;;;;5128769;28;20108;-71
2022/09/03 11:52:11;;;;;;;;;;;21.90;48.00;;;;;;5129274;27;20039;-71
2022/09/03 11:54:45;;;;;;;0.32;0.10;;;21.90;48.00;;;;;;5128536;28;20328;-71
2022/09/03 11:57:14;;;;;;;0.30;0.10;;;21.90;48.00;;;;;;5128483;28;20051;-71
2022/09/03 11:59:42;;;;;;;1.65;0.10;;;21.90;48.00;;;;;;5128948;28;20057;-71
2022/09/03 12:08:16;;;;;;;1.95;0.10;;;21.90;48.00;;;;;;5130307;27;20346;-70
2022/09/03 12:16:51;;;;;;;0.20;0.10;;;21.90;47.90;;;;;;5089543;27;20364;-71
2022/09/03 12:22:17;;;;;;;0.40;0.10;;;21.90;47.80;;;;;;5109769;27;20427;-70
2022/09/03 12:24:43;;;;;;;0.50;0.28;;;21.90;47.90;;;;;;5091423;28;20040;-70
2022/09/03 12:27:17;;;;;;;0.40;0.10;;;21.90;47.80;;;;;;5091713;28;20526;-70
2022/09/03 12:30:01;;;;;;;0.57;0.10;;;21.90;47.80;;;;;;5091259;28;20043;-70
2022/09/03 12:32:31;;;;;;;0.82;0.28;;;21.90;47.80;;;;;;5091431;28;20043;-70
2022/09/03 12:34:57;;;;;;;0.47;0.13;;;21.90;47.80;;;;;;5091308;28;20048;-70
2022/09/03 12:37:25;;;;;;;0.93;0.10;;;22.00;47.90;;;;;;5091337;28;20044;-70
2022/09/03 12:39:54;;;;;;;0.70;0.20;;;21.90;47.80;;;;;;5091015;28;20048;-70
2022/09/03 12:42:25;;;;;;;1.15;0.30;;;22.00;47.90;;;;;;5091122;28;20487;-71
2022/09/03 12:44:51;;;;;;;1.38;0.25;;;21.90;47.80;;;;;;5091317;28;20484;-71
2022/09/03 12:47:20;;;;;;;0.60;0.20;;;22.00;47.90;;;;;;5091281;28;20044;-70
2022/09/03 12:49:48;;;;;;;1.05;0.10;;;21.90;47.80;;;;;;5090919;28;20544;-71
2022/09/03 12:52:19;;;;;;;4.13;0.10;;;22.00;47.90;;;;;;5109211;28;20044;-71
2022/09/03 12:55:00;;;;;;;1.05;0.20;;;22.00;47.90;;;;;;5090702;28;20044;-70
2022/09/03 12:57:31;;;;;;;;;;;22.00;47.90;;;;;;5091664;28;20191;-70
2022/09/03 13:00:02;;;;;;;0.88;0.15;;;22.00;47.80;;;;;;5090955;28;19939;-70
2022/09/03 13:02:38;;;;;;;1.20;0.13;;;22.00;47.90;;;;;;5109017;28;20048;-71
2022/09/03 13:05:06;;;;;;;0.82;0.10;;;22.00;47.90;;;;;;5090887;28;20039;-70
2022/09/03 13:07:37;;;;;;;1.73;0.20;;;22.00;47.80;;;;;;5090672;28;20476;-71
2022/09/03 13:10:07;;;;;;;0.40;0.13;;;22.00;47.80;;;;;;5108847;28;20036;-70
2022/09/03 13:12:43;;;;;;;0.40;0.10;;;22.00;47.80;;;;;;5090632;28;20575;-71
2022/09/03 13:15:18;;;;;;;0.60;0.20;;;22.00;47.80;;;;;;5090495;28;20050;-71
2022/09/03 13:20:44;;;;;;;0.50;0.10;;;22.10;47.80;;;;;;5152829;27;1162552;-71
2022/09/03 13:28:57;;;;;;;0.17;0.10;;;22.10;47.80;;;;;;5130286;27;20353;-70
2022/09/03 13:34:19;;;;;;;0.52;0.20;;;22.00;47.70;;;;;;5130323;27;20128;-70
2022/09/03 13:37:03;;;;;;;0.70;0.50;;;22.10;47.70;;;;;;5128843;28;20040;-70
2022/09/03 13:39:37;;;;;;;0.50;0.13;;;22.00;47.70;;;;;;5129009;28;20089;-70
2022/09/03 13:44:49;;;;;;;1.58;0.10;;;22.10;47.70;;;;;;5130355;27;20357;-71
2022/09/03 13:58:39;;;;;;;1.75;0.20;;;22.10;47.60;;;;;;5089440;28;20397;-70
2022/09/03 14:01:14;;;;;;;0.45;0.10;;;22.10;47.70;;;;;;5105171;28;20051;-70
2022/09/03 14:09:19;;;;;;;0.45;0.10;;;22.10;47.70;;;;;;5130401;27;20350;-70
2022/09/03 14:12:14;;;;;;;0.93;0.10;;;22.20;47.80;;;;;;5128900;28;20077;-70
2022/09/03 14:15:05;;;;;;;0.30;0.10;;;22.10;48.40;;;;;;5129132;28;20082;-71
2022/09/03 14:20:27;;;;;;;0.40;0.20;;;22.10;47.70;;;;;;5130336;27;20580;-70
2022/09/03 14:25:31;;;;;;;0.35;0.10;;;22.20;47.80;;;;;;5130339;27;20410;-70
2022/09/03 14:28:25;;;;;;;0.50;0.10;;;22.20;47.80;;;;;;5128979;28;20429;-70
2022/09/03 14:31:03;;;;;;;1.45;0.20;;;22.20;47.70;;;;;;5128955;28;20035;-70
2022/09/03 14:33:41;;;;;;;0.15;0.08;;;22.20;48.10;;;;;;5128762;28;20047;-70
2022/09/03 14:36:28;;;;;;;0.52;0.10;;;22.20;47.80;;;;;;5129133;28;20088;-70
2022/09/03 14:39:10;;;;;;;0.68;0.20;;;22.20;47.70;;;;;;5130065;27;20036;-70
2022/09/03 14:50:08;;;;;;;1.42;0.10;;;22.20;47.80;;;;;;5089471;28;20191;-71
2022/09/03 15:01:10;;;;;;;0.70;0.10;;;22.20;47.70;;;;;;5130301;27;20354;-70
2022/09/03 15:06:40;;;;;;;0.82;0.17;;;22.30;48.60;;;;;;5130352;27;20349;-70
2022/09/03 15:09:31;;;;;;;0.75;0.10;;;22.30;47.80;;;;;;5128640;28;20052;-71
2022/09/03 15:12:00;;;;;;;;;;;22.30;47.90;;;;;;5129480;28;20043;-70
2022/09/03 15:17:39;;;;;;;0.30;0.10;;;22.30;47.90;;;;;;5130274;27;20410;-70
2022/09/03 15:23:31;;;;;;;0.20;0.10;;;22.30;47.90;;;;;;5130633;27;20410;-70
2022/09/03 15:34:06;;;;;;;0.25;0.10;;;22.30;47.90;;;;;;5130201;27;20406;-71
2022/09/03 15:36:41;;;;;;;1.08;0.10;;;22.30;47.90;;;;;;5129275;28;20039;-70
2022/09/03 15:39:15;;;;;;;0.30;0.10;;;22.30;47.90;;;;;;5129173;28;20093;-70
2022/09/03 15:42:07;;;;;;;0.40;0.32;;;22.30;47.90;;;;;;5128876;28;20497;-71
2022/09/03 15:44:42;;;;;;;0.95;0.20;;;22.40;47.90;;;;;;5129915;27;20067;-70
2022/09/03 15:47:13;;;;;;;0.60;0.20;;;22.40;48.10;;;;;;5129019;27;20433;-70
2022/09/03 15:50:00;;;;;;;0.47;0.20;;;22.40;47.90;;;;;;5128975;28;20398;-71
2022/09/03 15:58:37;;;;;;;0.70;0.10;;;22.40;48.00;;;;;;5089504;27;20356;-70
2022/09/03 16:06:57;;;;;;;0.22;0.10;;;22.40;47.90;;;;;;5152959;27;1160581;-71
2022/09/03 16:09:49;;;;;;;0.60;0.10;;;22.40;47.90;;;;;;5152973;27;20042;-70
2022/09/03 16:15:14;;;;;;;1.48;0.20;;;22.40;48.00;;;;;;5109781;27;20107;-70
2022/09/03 16:18:05;;;;;;;0.95;0.30;;;22.40;48.00;;;;;;5108794;28;20071;-71
2022/09/03 16:23:27;;;;;;;1.25;0.20;;;22.40;47.90;;;;;;5109779;27;20329;-70
2022/09/03 16:28:53;;;;;;;0.63;0.13;;;22.40;48.00;;;;;;5130326;27;20305;-71
2022/09/03 16:37:06;;;;;;;0.40;0.28;;;22.40;48.00;;;;;;5130315;27;20411;-71
2022/09/03 16:45:32;;;;;;;0.45;0.10;;;22.50;48.10;;;;;;5130387;27;20407;-70
2022/09/03 16:59:03;;;;;;;0.43;0.20;;;22.50;48.20;;;;;;5130380;27;20407;-70
2022/09/03 17:10:34;;;;;;;0.30;0.13;;;22.50;48.30;;;;;;5130363;27;20435;-70
2022/09/03 17:13:40;;;;;;;0.40;0.10;;;22.50;48.30;;;;;;5128720;28;20564;-70
2022/09/03 17:16:45;;;;;;;0.50;0.13;;;22.50;48.30;;;;;;5128908;28;20039;-70
2022/09/03 17:25:36;;;;;;;0.40;0.20;;;22.50;48.30;;;;;;5110326;27;1853756;-71
2022/09/03 17:30:57;;;;;;;0.25;0.10;;;22.50;48.30;;;;;;5130255;27;20353;-70
2022/09/03 17:33:53;;;;;;;0.82;0.32;;;22.50;48.40;;;;;;5128921;28;20039;-70
2022/09/03 17:42:03;;;;;;;0.50;0.10;;;22.50;48.40;;;;;;5130293;27;20346;-70
2022/09/03 17:45:09;;;;;;;0.35;0.10;;;22.50;48.40;;;;;;5128882;28;20043;-71
2022/09/03 17:50:23;;;;;;;0.40;0.15;;;22.50;48.40;;;;;;5089578;28;20758;-70
2022/09/03 17:55:40;;;;;;;1.08;0.30;;;22.50;48.50;;;;;;5089514;28;20364;-70
2022/09/03 17:58:20;;;;;;;0.22;0.10;;;22.50;48.50;;;;;;5088146;28;20059;-70
2022/09/03 18:01:19;;;;;;;0.40;0.10;;;22.60;48.60;;;;;;5089437;28;20040;-70
2022/09/03 18:04:16;;;;;;;0.95;0.10;;;22.50;48.50;;;;;;5088171;28;20670;-70